createdAt,value
2022-11-30T00:01:15.099Z,15.02
2022-11-30T00:03:43.359Z,14.93
2022-11-30T00:06:14.259Z,15.73
2022-11-30T00:08:42.464Z,15.52
2022-11-30T00:11:13.144Z,16.17
2022-11-30T00:13:41.848Z,15.77
2022-11-30T00:16:09.864Z,16.02
2022-11-30T00:18:38.128Z,14.85
2022-11-30T00:21:09.548Z,15.38
2022-11-30T00:23:40.296Z,15.18
2022-11-30T00:26:09.933Z,16.65
2022-11-30T00:28:38.596Z,14.82
2022-11-30T00:31:09.074Z,15.52
2022-11-30T00:33:38.309Z,15.77
2022-11-30T00:36:08.505Z,15.75
2022-11-30T00:38:38.188Z,14.88
2022-11-30T00:41:06.394Z,15.00
2022-11-30T00:43:34.324Z,15.82
2022-11-30T00:46:02.305Z,14.82
2022-11-30T00:48:30.405Z,15.20
2022-11-30T00:50:58.388Z,14.93
2022-11-30T00:53:26.400Z,15.52
2022-11-30T00:55:55.857Z,15.18
2022-11-30T00:58:23.859Z,14.32
2022-11-30T01:00:52.069Z,15.52
2022-11-30T01:03:20.090Z,16.10
2022-11-30T01:05:48.013Z,15.43
2022-11-30T01:08:16.001Z,14.05
2022-11-30T01:10:45.131Z,15.85
2022-11-30T01:13:16.188Z,16.20
2022-11-30T01:15:45.259Z,14.18
2022-11-30T01:18:13.303Z,15.50
2022-11-30T01:20:42.452Z,15.23
2022-11-30T01:23:10.691Z,14.55
2022-11-30T01:25:38.738Z,14.40
2022-11-30T01:28:06.830Z,14.05
2022-11-30T01:30:36.143Z,15.18
2022-11-30T01:33:04.759Z,15.02
2022-11-30T01:35:33.814Z,15.13
2022-11-30T01:38:01.714Z,14.52
2022-11-30T01:40:29.845Z,14.30
2022-11-30T01:42:57.817Z,14.57
2022-11-30T01:45:25.851Z,14.88
2022-11-30T01:47:58.092Z,14.00
2022-11-30T01:50:30.193Z,14.55
2022-11-30T01:52:59.709Z,13.85
2022-11-30T01:55:31.629Z,15.80
2022-11-30T01:58:04.920Z,15.10
2022-11-30T02:00:32.937Z,14.52
2022-11-30T02:03:07.769Z,15.00
2022-11-30T02:05:37.592Z,14.68
2022-11-30T02:08:06.823Z,16.20
2022-11-30T02:10:38.868Z,16.23
2022-11-30T02:13:20.075Z,14.98
2022-11-30T02:15:57.176Z,15.43
2022-11-30T02:18:33.123Z,15.13
2022-11-30T02:21:09.030Z,15.55
2022-11-30T02:24:00.017Z,16.52
2022-11-30T02:26:52.145Z,15.93
2022-11-30T02:29:24.384Z,15.60
2022-11-30T02:31:56.608Z,16.38
2022-11-30T02:34:28.985Z,15.25
2022-11-30T02:36:59.932Z,16.40
2022-11-30T02:39:27.910Z,15.93
2022-11-30T02:41:55.869Z,16.58
2022-11-30T02:44:25.699Z,16.23
2022-11-30T02:47:02.444Z,15.40
2022-11-30T02:49:36.867Z,15.43
2022-11-30T02:52:06.160Z,15.57
2022-11-30T02:54:35.297Z,15.43
2022-11-30T02:57:03.391Z,15.43
2022-11-30T02:59:32.764Z,16.02
2022-11-30T03:02:01.185Z,15.35
2022-11-30T03:04:29.161Z,15.38
2022-11-30T03:06:57.058Z,16.27
2022-11-30T03:09:24.964Z,14.82
2022-11-30T03:11:53.200Z,15.55
2022-11-30T03:14:21.312Z,14.55
2022-11-30T03:16:50.573Z,15.57
2022-11-30T03:19:18.563Z,15.35
2022-11-30T03:21:46.519Z,15.90
2022-11-30T03:24:14.515Z,16.75
2022-11-30T03:26:42.433Z,15.52
2022-11-30T03:29:10.358Z,15.13
2022-11-30T03:31:38.239Z,14.77
2022-11-30T03:34:07.570Z,14.75
2022-11-30T03:36:35.498Z,15.60
2022-11-30T03:39:03.473Z,14.68
2022-11-30T03:41:31.677Z,13.73
2022-11-30T03:44:00.041Z,15.20
2022-11-30T03:46:28.348Z,14.48
2022-11-30T03:48:56.333Z,15.50
2022-11-30T03:51:25.596Z,15.45
2022-11-30T03:53:53.530Z,13.75
2022-11-30T03:56:21.598Z,14.73
2022-11-30T03:58:49.512Z,14.18
2022-11-30T04:01:22.180Z,14.27
2022-11-30T04:03:51.080Z,14.95
2022-11-30T04:06:20.149Z,14.35
2022-11-30T04:08:49.573Z,14.38
2022-11-30T04:11:17.816Z,14.18
2022-11-30T04:13:45.760Z,14.00
2022-11-30T04:16:13.865Z,13.70
2022-11-30T04:18:41.838Z,13.05
2022-11-30T04:21:09.871Z,16.73
2022-11-30T04:23:40.049Z,15.23
2022-11-30T04:26:12.804Z,14.02
2022-11-30T04:28:40.916Z,15.25
2022-11-30T04:31:09.018Z,13.60
2022-11-30T04:33:37.223Z,15.55
2022-11-30T04:36:08.031Z,14.20
2022-11-30T04:38:37.983Z,15.48
2022-11-30T04:41:10.143Z,13.38
2022-11-30T04:43:38.393Z,13.73
2022-11-30T04:46:07.039Z,13.70
2022-11-30T04:48:35.859Z,12.60
2022-11-30T04:51:04.478Z,12.85
2022-11-30T04:53:32.491Z,15.10
2022-11-30T04:56:00.415Z,15.45
2022-11-30T04:58:29.728Z,12.57
2022-11-30T05:00:57.601Z,11.90
2022-11-30T05:03:25.581Z,12.43
2022-11-30T05:05:53.433Z,12.85
2022-11-30T05:08:21.460Z,12.13
2022-11-30T05:10:53.474Z,13.05
2022-11-30T05:13:22.444Z,12.43
2022-11-30T05:15:53.603Z,11.70
2022-11-30T05:18:21.582Z,12.43
2022-11-30T05:20:49.926Z,11.60
2022-11-30T05:23:18.103Z,11.05
2022-11-30T05:25:46.505Z,10.35
2022-11-30T05:28:14.995Z,10.82
2022-11-30T05:30:44.151Z,10.43
2022-11-30T05:33:13.803Z,11.25
2022-11-30T05:35:41.759Z,11.25
2022-11-30T05:38:09.792Z,11.65
2022-11-30T05:40:37.862Z,11.35
2022-11-30T05:43:07.176Z,10.48
2022-11-30T05:45:35.288Z,11.52
2022-11-30T05:48:03.265Z,11.70
2022-11-30T05:50:32.579Z,10.43
2022-11-30T05:53:01.032Z,11.23
2022-11-30T05:55:31.033Z,9.93
2022-11-30T05:57:59.338Z,10.80
2022-11-30T06:00:27.487Z,12.52
2022-11-30T06:02:57.902Z,16.45
2022-11-30T06:05:26.281Z,15.00
2022-11-30T06:07:55.866Z,12.82
2022-11-30T06:10:25.279Z,11.88
2022-11-30T06:12:53.244Z,13.73
2022-11-30T06:15:23.610Z,11.65
2022-11-30T06:17:51.624Z,10.65
2022-11-30T06:20:19.680Z,11.82
2022-11-30T06:22:47.809Z,13.13
2022-11-30T06:25:17.255Z,12.23
2022-11-30T06:27:45.209Z,11.98
2022-11-30T06:30:14.378Z,10.50
2022-11-30T06:32:45.984Z,10.70
2022-11-30T06:35:14.112Z,9.52
2022-11-30T06:37:42.588Z,10.80
2022-11-30T06:40:12.682Z,11.65
2022-11-30T06:42:42.087Z,10.23
2022-11-30T06:45:11.097Z,10.10
2022-11-30T06:47:39.373Z,10.80
2022-11-30T06:50:10.057Z,9.90
2022-11-30T06:52:37.980Z,10.57
2022-11-30T06:55:06.664Z,10.73
2022-11-30T06:57:34.907Z,14.35
2022-11-30T07:00:05.286Z,11.27
2022-11-30T07:02:33.238Z,9.13
2022-11-30T07:05:01.656Z,8.75
2022-11-30T07:07:30.557Z,10.15
2022-11-30T07:09:58.818Z,11.23
2022-11-30T07:12:27.068Z,11.13
2022-11-30T07:14:56.479Z,12.85
2022-11-30T07:17:25.796Z,11.50
2022-11-30T07:19:53.717Z,12.38
2022-11-30T07:22:21.712Z,11.63
2022-11-30T07:25:07.061Z,11.35
2022-11-30T07:27:35.033Z,10.90
2022-11-30T07:30:03.116Z,11.38
2022-11-30T07:32:32.506Z,11.63
2022-11-30T07:35:00.451Z,10.38
2022-11-30T07:37:28.475Z,11.52
2022-11-30T07:39:56.420Z,10.68
2022-11-30T07:42:24.350Z,12.20
2022-11-30T07:44:58.176Z,10.25
2022-11-30T07:47:26.781Z,12.35
2022-11-30T07:49:56.067Z,11.70
2022-11-30T07:52:24.323Z,12.07
2022-11-30T07:54:52.337Z,11.57
2022-11-30T07:57:20.290Z,12.73
2022-11-30T07:59:48.888Z,12.38
2022-11-30T08:02:17.139Z,11.50
2022-11-30T08:04:45.628Z,11.98
2022-11-30T08:07:15.741Z,12.68
2022-11-30T08:09:45.027Z,13.38
2022-11-30T08:12:12.983Z,13.45
2022-11-30T08:15:03.617Z,13.55
2022-11-30T08:17:29.116Z,11.88
2022-11-30T08:19:57.101Z,12.60
2022-11-30T08:22:26.432Z,12.68
2022-11-30T08:24:54.389Z,14.10
2022-11-30T08:27:22.443Z,13.13
2022-11-30T08:29:50.537Z,12.80
2022-11-30T08:32:18.630Z,11.55
2022-11-30T08:34:47.803Z,11.60
2022-11-30T08:37:16.115Z,11.45
2022-11-30T08:39:45.451Z,12.40
2022-11-30T08:42:13.552Z,12.27
2022-11-30T08:44:41.779Z,12.52
2022-11-30T08:47:09.809Z,11.27
2022-11-30T08:49:38.137Z,12.13
2022-11-30T08:52:21.649Z,11.48
2022-11-30T08:54:51.449Z,12.55
2022-11-30T08:57:22.241Z,11.60
2022-11-30T08:59:50.518Z,12.40
2022-11-30T09:02:20.031Z,11.85
2022-11-30T09:04:51.110Z,10.98
2022-11-30T09:07:19.856Z,12.43
2022-11-30T09:09:47.938Z,12.43
2022-11-30T09:12:17.249Z,12.65
2022-11-30T09:14:47.723Z,11.80
2022-11-30T09:17:18.963Z,12.00
2022-11-30T09:19:46.912Z,12.13
2022-11-30T09:22:14.816Z,11.65
2022-11-30T09:24:42.770Z,11.30
2022-11-30T09:27:10.698Z,13.02
2022-11-30T09:29:40.031Z,12.00
2022-11-30T09:32:08.079Z,11.48
2022-11-30T09:34:36.127Z,12.88
2022-11-30T09:37:04.101Z,11.90
2022-11-30T09:39:32.163Z,12.43
2022-11-30T09:42:42.014Z,11.85
2022-11-30T09:45:17.054Z,12.02
2022-11-30T09:48:13.354Z,12.70
2022-11-30T09:50:44.646Z,12.23
2022-11-30T09:53:26.041Z,12.27
2022-11-30T09:55:57.758Z,11.90
2022-11-30T09:58:34.555Z,12.05
2022-11-30T10:01:07.335Z,12.60
2022-11-30T10:03:35.717Z,12.02
2022-11-30T10:06:09.822Z,12.25
2022-11-30T10:08:54.981Z,11.75
2022-11-30T10:11:36.493Z,12.48
2022-11-30T10:14:24.756Z,11.50
2022-11-30T10:17:01.930Z,12.75
2022-11-30T10:19:45.016Z,12.50
2022-11-30T10:22:22.978Z,13.32
2022-11-30T10:25:11.732Z,11.48
2022-11-30T10:27:50.769Z,12.52
2022-11-30T10:30:22.302Z,12.48
2022-11-30T10:32:54.085Z,12.43
2022-11-30T10:35:31.044Z,11.65
2022-11-30T10:38:03.494Z,12.40
2022-11-30T10:40:39.084Z,12.43
2022-11-30T10:43:16.732Z,12.07
2022-11-30T10:45:49.002Z,11.43
2022-11-30T10:48:24.180Z,11.60
2022-11-30T10:50:53.799Z,11.85
2022-11-30T10:53:22.365Z,11.90
2022-11-30T10:55:59.868Z,10.88
2022-11-30T10:58:30.969Z,13.25
2022-11-30T11:01:04.799Z,13.23
2022-11-30T11:03:36.479Z,11.80
2022-11-30T11:06:17.188Z,11.93
2022-11-30T11:08:46.994Z,11.68
2022-11-30T11:11:30.275Z,12.98
2022-11-30T11:14:18.802Z,13.77
2022-11-30T11:16:52.159Z,14.00
2022-11-30T11:19:49.551Z,13.60
2022-11-30T11:22:20.049Z,12.25
2022-11-30T11:24:49.744Z,13.63
2022-11-30T11:27:23.974Z,13.60
2022-11-30T11:30:02.546Z,14.25
2022-11-30T11:32:31.387Z,13.40
2022-11-30T11:35:00.968Z,15.02
2022-11-30T11:37:31.040Z,15.98
2022-11-30T11:40:14.907Z,13.20
2022-11-30T11:42:48.159Z,13.43
2022-11-30T11:45:19.358Z,12.15
2022-11-30T11:47:49.266Z,11.07
2022-11-30T11:51:05.708Z,11.35
2022-11-30T11:53:23.984Z,11.65
2022-11-30T11:55:56.112Z,12.95
2022-11-30T11:58:34.243Z,12.23
2022-11-30T12:01:31.710Z,12.07
2022-11-30T12:04:06.148Z,11.88
2022-11-30T12:06:36.783Z,12.50
2022-11-30T12:09:13.633Z,11.85
2022-11-30T12:11:45.473Z,10.68
2022-11-30T12:14:15.164Z,11.48
2022-11-30T12:17:05.226Z,11.30
2022-11-30T12:19:41.389Z,11.38
2022-11-30T12:22:25.156Z,11.40
2022-11-30T12:25:05.889Z,11.57
2022-11-30T12:27:42.485Z,16.10
2022-11-30T12:30:19.945Z,15.63
2022-11-30T12:33:11.753Z,12.75
2022-11-30T12:35:47.826Z,11.75
2022-11-30T12:38:27.742Z,10.73
2022-11-30T12:41:04.204Z,11.45
2022-11-30T12:43:40.752Z,11.27
2022-11-30T12:46:15.897Z,11.40
2022-11-30T12:48:54.076Z,11.57
2022-11-30T12:51:29.784Z,12.35
2022-11-30T12:54:05.197Z,12.05
2022-11-30T12:56:46.263Z,11.65
2022-11-30T12:59:29.341Z,11.95
2022-11-30T13:02:17.279Z,13.23
2022-11-30T13:04:51.890Z,13.80
2022-11-30T13:07:31.317Z,13.20
2022-11-30T13:10:07.476Z,12.27
2022-11-30T13:12:37.735Z,12.65
2022-11-30T13:15:15.291Z,13.70
2022-11-30T13:17:44.810Z,13.45
2022-11-30T13:20:21.966Z,12.90
2022-11-30T13:22:54.463Z,13.07
2022-11-30T13:26:06.193Z,14.32
2022-11-30T13:28:32.606Z,14.35
2022-11-30T13:31:06.078Z,13.40
2022-11-30T13:33:48.198Z,14.07
2022-11-30T13:36:33.859Z,13.43
2022-11-30T13:42:31.138Z,11.68
2022-11-30T13:45:00.876Z,15.18
2022-11-30T13:47:31.836Z,15.48
2022-11-30T13:50:01.965Z,14.95
2022-11-30T13:53:23.986Z,14.40
2022-11-30T13:55:58.292Z,13.68
2022-11-30T13:58:28.518Z,14.95
2022-11-30T14:01:25.766Z,13.85
2022-11-30T14:04:30.303Z,13.48
2022-11-30T14:06:59.488Z,13.38
2022-11-30T14:09:57.134Z,14.35
2022-11-30T14:12:56.877Z,14.15
2022-11-30T14:15:54.019Z,14.48
2022-11-30T14:18:28.521Z,13.80
2022-11-30T14:21:01.671Z,13.63
2022-11-30T14:23:33.371Z,14.90
2022-11-30T14:26:10.549Z,13.93
2022-11-30T14:28:44.068Z,16.05
2022-11-30T14:31:20.455Z,13.02
2022-11-30T14:33:54.326Z,14.40
2022-11-30T14:36:23.796Z,15.00
2022-11-30T14:38:51.730Z,15.60
2022-11-30T14:41:22.460Z,15.98
2022-11-30T14:44:01.425Z,15.20
2022-11-30T14:46:33.611Z,16.65
2022-11-30T14:49:13.550Z,22.13
2022-11-30T14:51:42.726Z,20.40
2022-11-30T14:54:27.700Z,19.15
2022-11-30T14:57:03.669Z,18.17
2022-11-30T14:59:41.404Z,17.98
2022-11-30T15:02:21.565Z,17.20
2022-11-30T15:04:52.536Z,16.05
2022-11-30T15:07:21.215Z,19.15
2022-11-30T15:09:52.551Z,17.48
2022-11-30T15:12:23.501Z,17.48
2022-11-30T15:15:06.518Z,17.48
2022-11-30T15:17:47.575Z,17.30
2022-11-30T15:20:25.896Z,17.75
2022-11-30T15:22:55.447Z,17.63
2022-11-30T15:25:26.753Z,16.80
2022-11-30T15:27:55.249Z,17.13
2022-11-30T15:30:23.232Z,18.70
2022-11-30T15:32:53.417Z,16.27
2022-11-30T15:35:30.735Z,16.85
2022-11-30T15:38:11.777Z,16.63
2022-11-30T15:40:39.758Z,16.63
2022-11-30T15:43:20.640Z,17.45
2022-11-30T15:45:55.133Z,17.52
2022-11-30T15:48:30.733Z,20.17
2022-11-30T15:50:59.595Z,20.80
2022-11-30T15:53:49.935Z,21.13
2022-11-30T15:56:25.956Z,22.80
2022-11-30T15:59:06.639Z,23.23
2022-11-30T16:02:01.857Z,25.73
2022-11-30T16:05:14.084Z,18.48
2022-11-30T16:07:50.657Z,17.92
2022-11-30T16:10:22.698Z,18.17
2022-11-30T16:12:52.868Z,18.77
2022-11-30T16:15:22.707Z,17.63
2022-11-30T16:17:51.463Z,18.50
2022-11-30T16:20:21.590Z,18.13
2022-11-30T16:22:50.158Z,19.65
2022-11-30T16:25:21.125Z,18.60
2022-11-30T16:27:50.005Z,21.02
2022-11-30T16:30:20.222Z,20.08
2022-11-30T16:32:48.637Z,19.75
2022-11-30T16:35:24.262Z,18.20
2022-11-30T16:37:58.047Z,18.05
2022-11-30T16:40:25.988Z,18.70
2022-11-30T16:42:53.973Z,18.88
2022-11-30T16:45:23.710Z,18.00
2022-11-30T16:47:52.062Z,17.92
2022-11-30T16:50:21.509Z,17.77
2022-11-30T16:52:49.455Z,17.88
2022-11-30T16:55:19.482Z,19.02
2022-11-30T16:57:48.157Z,19.48
2022-11-30T17:00:18.782Z,17.45
2022-11-30T17:02:52.500Z,17.40
2022-11-30T17:05:21.900Z,17.05
2022-11-30T17:07:50.023Z,16.02
2022-11-30T17:10:18.261Z,17.48
2022-11-30T17:12:46.365Z,17.17
2022-11-30T17:15:17.049Z,16.52
2022-11-30T17:17:45.255Z,16.02
2022-11-30T17:20:14.718Z,17.52
2022-11-30T17:22:44.655Z,16.33
2022-11-30T17:25:16.806Z,16.02
2022-11-30T17:27:45.778Z,16.02
2022-11-30T17:30:16.286Z,15.55
2022-11-30T17:32:44.270Z,16.50
2022-11-30T17:35:12.962Z,20.67
2022-11-30T17:37:40.875Z,27.70
2022-11-30T17:40:13.045Z,25.80
2022-11-30T17:42:41.232Z,22.77
2022-11-30T17:45:10.107Z,23.40
2022-11-30T17:47:38.454Z,18.63
2022-11-30T17:50:07.815Z,19.60
2022-11-30T17:52:36.429Z,18.40
2022-11-30T17:55:04.901Z,16.67
2022-11-30T17:57:34.218Z,19.08
2022-11-30T18:00:02.144Z,19.00
2022-11-30T18:02:33.096Z,18.90
2022-11-30T18:05:14.780Z,16.20
2022-11-30T18:07:42.999Z,15.40
2022-11-30T18:10:11.674Z,15.23
2022-11-30T18:12:41.205Z,15.60
2022-11-30T18:15:10.579Z,16.92
2022-11-30T18:17:38.648Z,16.13
2022-11-30T18:20:07.969Z,17.67
2022-11-30T18:22:35.988Z,16.17
2022-11-30T18:25:04.010Z,18.20
2022-11-30T18:27:31.948Z,17.02
2022-11-30T18:30:04.801Z,16.08
2022-11-30T18:32:35.349Z,15.57
2022-11-30T18:35:03.265Z,16.63
2022-11-30T18:37:31.208Z,16.98
2022-11-30T18:39:59.207Z,15.73
2022-11-30T18:42:27.116Z,17.75
2022-11-30T18:44:55.885Z,16.42
2022-11-30T18:47:25.207Z,14.90
2022-11-30T18:49:53.219Z,16.45
2022-11-30T18:52:21.277Z,16.23
2022-11-30T18:54:49.471Z,15.93
2022-11-30T18:57:17.709Z,15.18
2022-11-30T18:59:47.712Z,17.20
2022-11-30T19:02:19.150Z,15.48
2022-11-30T19:04:48.793Z,14.60
2022-11-30T19:07:17.145Z,16.75
2022-11-30T19:09:46.018Z,18.58
2022-11-30T19:12:14.094Z,17.20
2022-11-30T19:14:43.002Z,16.05
2022-11-30T19:17:11.165Z,18.00
2022-11-30T19:19:39.403Z,15.30
2022-11-30T19:22:08.649Z,16.25
2022-11-30T19:24:36.695Z,15.43
2022-11-30T19:27:04.776Z,17.10
2022-11-30T19:29:32.690Z,18.33
2022-11-30T19:32:00.635Z,17.65
2022-11-30T19:34:28.580Z,16.20
2022-11-30T19:36:56.627Z,16.25
2022-11-30T19:39:25.877Z,17.20
2022-11-30T19:41:53.844Z,16.73
2022-11-30T19:44:23.993Z,15.93
2022-11-30T19:46:52.034Z,14.95
2022-11-30T19:49:19.970Z,15.98
2022-11-30T19:51:47.942Z,15.63
2022-11-30T19:54:15.916Z,17.30
2022-11-30T19:56:45.275Z,15.00
2022-11-30T19:59:13.210Z,15.30
2022-11-30T20:01:41.300Z,15.77
2022-11-30T20:04:09.317Z,15.27
2022-11-30T20:06:38.884Z,15.73
2022-11-30T20:09:08.750Z,15.93
2022-11-30T20:11:36.833Z,14.82
2022-11-30T20:14:06.558Z,15.77
2022-11-30T20:16:34.590Z,13.93
2022-11-30T20:19:03.491Z,15.32
2022-11-30T20:21:33.784Z,15.15
2022-11-30T20:24:03.293Z,14.55
2022-11-30T20:26:33.227Z,14.65
2022-11-30T20:29:03.037Z,15.00
2022-11-30T20:31:34.316Z,13.63
2022-11-30T20:34:02.354Z,13.45
2022-11-30T20:36:30.341Z,14.57
2022-11-30T20:38:59.666Z,14.55
2022-11-30T20:41:28.541Z,14.48
2022-11-30T20:43:57.097Z,15.27
2022-11-30T20:46:27.414Z,14.52
2022-11-30T20:48:57.740Z,14.90
2022-11-30T20:51:31.657Z,15.20
2022-11-30T20:54:01.041Z,14.93
2022-11-30T20:56:29.024Z,16.10
2022-11-30T20:58:57.263Z,15.40
2022-11-30T21:01:25.320Z,15.20
2022-11-30T21:03:53.382Z,15.02
2022-11-30T21:06:22.709Z,15.32
2022-11-30T21:08:50.707Z,13.50
2022-11-30T21:11:20.549Z,15.50
2022-11-30T21:13:50.370Z,14.45
2022-11-30T21:16:27.321Z,15.27
2022-11-30T21:18:57.299Z,14.98
2022-11-30T21:21:30.519Z,14.95
2022-11-30T21:24:00.075Z,14.05
2022-11-30T21:26:30.786Z,15.05
2022-11-30T21:29:01.819Z,15.02
2022-11-30T21:31:30.119Z,13.85
2022-11-30T21:33:58.551Z,16.42
2022-11-30T21:36:28.646Z,16.13
2022-11-30T21:39:04.573Z,15.48
2022-11-30T21:41:33.399Z,15.25
2022-11-30T21:44:01.799Z,15.40
2022-11-30T21:46:29.931Z,16.00
2022-11-30T21:48:57.972Z,15.98
2022-11-30T21:51:29.505Z,16.40
2022-11-30T21:53:59.598Z,14.35
2022-11-30T21:56:29.439Z,15.32
2022-11-30T21:58:58.124Z,17.00
2022-11-30T22:01:28.391Z,17.45
2022-11-30T22:03:56.830Z,17.63
2022-11-30T22:06:27.476Z,18.75
2022-11-30T22:08:57.552Z,19.10
2022-11-30T22:11:25.483Z,18.55
2022-11-30T22:13:54.928Z,21.25
2022-11-30T22:16:29.923Z,18.80
2022-11-30T22:19:02.198Z,19.83
2022-11-30T22:21:32.264Z,17.77
2022-11-30T22:24:01.522Z,20.10
2022-11-30T22:26:31.040Z,18.92
2022-11-30T22:29:00.934Z,20.77
2022-11-30T22:31:31.225Z,20.20
2022-11-30T22:33:59.396Z,20.42
2022-11-30T22:36:28.997Z,20.63
2022-11-30T22:39:00.855Z,20.50
2022-11-30T22:41:29.701Z,20.77
2022-11-30T22:43:58.336Z,21.27
2022-11-30T22:46:27.939Z,19.75
2022-11-30T22:48:56.178Z,20.10
2022-11-30T22:51:25.510Z,19.33
2022-11-30T22:53:54.315Z,20.08
2022-11-30T22:56:25.383Z,19.05
2022-11-30T22:58:54.941Z,18.92
2022-11-30T23:01:24.965Z,19.08
2022-11-30T23:03:56.119Z,20.45
2022-11-30T23:06:25.186Z,20.45
2022-11-30T23:08:53.472Z,18.75
2022-11-30T23:11:24.545Z,18.45
2022-11-30T23:13:52.761Z,19.15
2022-11-30T23:16:21.308Z,18.55
2022-11-30T23:18:51.704Z,18.90
2022-11-30T23:21:21.809Z,18.77
2022-11-30T23:23:49.896Z,19.02
2022-11-30T23:26:20.133Z,19.38
2022-11-30T23:28:51.209Z,19.98
2022-11-30T23:31:33.763Z,20.75
2022-11-30T23:34:04.703Z,19.95
2022-11-30T23:36:33.056Z,18.65
2022-11-30T23:39:03.052Z,20.13
2022-11-30T23:41:31.164Z,17.85
2022-11-30T23:44:00.551Z,20.52
2022-11-30T23:46:28.578Z,19.45
2022-11-30T23:48:56.670Z,20.27
2022-11-30T23:51:25.329Z,19.90
2022-11-30T23:53:53.414Z,18.65
2022-11-30T23:56:23.003Z,19.92
2022-11-30T23:58:51.143Z,20.30
